createdAt,value
2023-03-02T00:00:14.657Z,4.37
2023-03-02T00:04:22.634Z,4.56
2023-03-02T00:08:24.128Z,4.13
2023-03-02T00:12:30.912Z,4.79
2023-03-02T00:16:33.278Z,4.44
2023-03-02T00:20:35.879Z,5.07
2023-03-02T00:24:37.396Z,5.38
2023-03-02T00:28:38.815Z,5.17
2023-03-02T00:32:40.568Z,4.91
2023-03-02T00:36:42.708Z,5.09
2023-03-02T00:40:46.280Z,4.78
2023-03-02T00:44:47.747Z,5.02
2023-03-02T00:48:50.339Z,4.70
2023-03-02T00:52:51.891Z,4.67
2023-03-02T00:56:53.370Z,4.85
2023-03-02T01:00:57.035Z,4.73
2023-03-02T01:04:59.591Z,4.86
2023-03-02T01:09:01.151Z,4.99
2023-03-02T01:13:02.722Z,4.69
2023-03-02T01:17:06.369Z,4.44
2023-03-02T01:21:11.248Z,4.64
2023-03-02T01:25:13.431Z,4.63
2023-03-02T01:29:14.906Z,4.11
2023-03-02T01:33:16.397Z,4.23
2023-03-02T01:37:18.336Z,4.16
2023-03-02T01:41:19.914Z,4.07
2023-03-02T01:45:45.505Z,4.40
2023-03-02T01:49:58.481Z,4.05
2023-03-02T01:54:10.247Z,4.42
2023-03-02T01:58:14.857Z,4.68
2023-03-02T02:02:16.660Z,4.65
2023-03-02T02:12:05.848Z,4.19
2023-03-02T02:16:09.187Z,4.64
2023-03-02T02:20:27.052Z,5.09
2023-03-02T02:24:43.998Z,4.81
2023-03-02T02:29:07.847Z,4.72
2023-03-02T02:33:16.331Z,4.61
2023-03-02T02:37:26.036Z,4.52
2023-03-02T02:41:32.328Z,5.06
2023-03-02T02:45:35.913Z,5.10
2023-03-02T02:49:40.271Z,4.85
2023-03-02T02:54:01.148Z,5.24
2023-03-02T02:58:17.517Z,5.32
2023-03-02T03:02:25.447Z,4.85
2023-03-02T03:06:38.057Z,4.58
2023-03-02T03:10:43.124Z,4.53
2023-03-02T03:14:45.982Z,4.45
2023-03-02T03:18:49.687Z,4.78
2023-03-02T03:22:53.379Z,4.58
2023-03-02T03:26:56.264Z,5.10
2023-03-02T03:30:59.085Z,4.65
2023-03-02T03:35:00.746Z,3.53
2023-03-02T03:39:06.137Z,4.08
2023-03-02T03:43:08.797Z,4.09
2023-03-02T03:47:10.288Z,3.99
2023-03-02T03:51:12.254Z,4.17
2023-03-02T03:55:14.687Z,4.22
2023-03-02T03:59:21.245Z,4.39
2023-03-02T04:03:27.069Z,4.53
2023-03-02T04:07:28.562Z,4.63
2023-03-02T04:11:31.970Z,4.64
2023-03-02T04:15:34.084Z,4.41
2023-03-02T04:19:37.291Z,4.21
2023-03-02T04:23:39.506Z,4.27
2023-03-02T04:27:41.314Z,4.64
2023-03-02T04:31:43.535Z,4.84
2023-03-02T04:35:46.177Z,4.85
2023-03-02T04:39:51.188Z,4.01
2023-03-02T04:43:52.639Z,4.25
2023-03-02T04:47:54.045Z,4.82
2023-03-02T04:51:55.506Z,4.82
2023-03-02T04:55:56.969Z,3.89
2023-03-02T04:59:58.529Z,3.98
2023-03-02T05:04:02.732Z,4.07
2023-03-02T05:08:04.641Z,3.96
2023-03-02T05:12:06.592Z,4.19
2023-03-02T05:16:08.202Z,4.69
2023-03-02T05:20:11.893Z,4.39
2023-03-02T05:24:14.115Z,4.66
2023-03-02T05:28:15.682Z,4.77
2023-03-02T05:32:17.180Z,4.46
2023-03-02T05:36:20.733Z,4.58
2023-03-02T05:40:23.094Z,4.58
2023-03-02T05:44:24.567Z,4.19
2023-03-02T05:48:30.317Z,4.41
2023-03-02T05:52:31.722Z,4.61
2023-03-02T05:56:33.564Z,3.97
2023-03-02T06:00:35.218Z,3.68
2023-03-02T06:04:43.150Z,3.33
2023-03-02T06:08:44.653Z,3.85
2023-03-02T06:12:46.078Z,3.33
2023-03-02T06:16:48.841Z,4.03
2023-03-02T06:20:50.950Z,4.40
2023-03-02T06:24:55.011Z,4.19
2023-03-02T06:28:56.425Z,4.12
2023-03-02T06:32:57.959Z,3.23
2023-03-02T06:36:59.462Z,4.00
2023-03-02T06:41:00.990Z,3.35
2023-03-02T06:45:02.521Z,3.84
2023-03-02T06:49:04.722Z,4.22
2023-03-02T06:53:06.127Z,4.33
2023-03-02T06:57:07.999Z,3.72
2023-03-02T07:01:09.557Z,3.93
2023-03-02T07:05:11.424Z,4.37
2023-03-02T07:09:12.849Z,4.77
2023-03-02T07:13:14.302Z,4.92
2023-03-02T07:17:15.907Z,4.78
2023-03-02T07:21:17.303Z,4.62
2023-03-02T07:25:18.940Z,5.29
2023-03-02T07:29:20.437Z,5.56
2023-03-02T07:33:22.413Z,4.85
2023-03-02T07:37:23.916Z,5.10
2023-03-02T07:41:25.333Z,5.02
2023-03-02T07:45:26.760Z,4.81
2023-03-02T07:49:28.422Z,5.19
2023-03-02T07:53:30.799Z,5.32
2023-03-02T07:57:32.240Z,4.97
2023-03-02T08:01:34.054Z,5.02
2023-03-02T08:05:35.677Z,4.85
2023-03-02T08:09:39.012Z,4.56
2023-03-02T08:13:40.895Z,5.05
2023-03-02T08:18:02.299Z,4.92
2023-03-02T08:22:23.711Z,5.17
2023-03-02T08:26:45.116Z,5.32
2023-03-02T08:31:08.689Z,5.31
2023-03-02T08:35:30.418Z,5.01
2023-03-02T08:39:51.880Z,5.04
2023-03-02T08:44:13.312Z,4.80
2023-03-02T08:48:34.701Z,5.22
2023-03-02T08:52:56.110Z,5.63
2023-03-02T08:57:18.261Z,5.76
2023-03-02T09:01:41.811Z,5.96
2023-03-02T09:06:03.263Z,5.96
2023-03-02T09:10:24.797Z,4.89
2023-03-02T09:14:46.154Z,5.95
2023-03-02T09:19:07.581Z,6.10
2023-03-02T09:23:29.597Z,6.03
2023-03-02T09:27:50.966Z,5.81
2023-03-02T09:32:14.025Z,5.88
2023-03-02T09:36:35.571Z,5.84
2023-03-02T09:41:18.681Z,6.03
2023-03-02T09:45:54.147Z,5.89
2023-03-02T09:50:34.648Z,5.59
2023-03-02T09:54:37.908Z,5.84
2023-03-02T09:58:41.955Z,6.36
2023-03-02T10:02:50.825Z,6.11
2023-03-02T10:07:02.559Z,6.18
2023-03-02T10:11:22.198Z,6.19
2023-03-02T10:15:31.266Z,5.63
2023-03-02T10:19:42.183Z,5.35
2023-03-02T10:23:46.669Z,5.82
2023-03-02T10:27:56.342Z,5.62
2023-03-02T10:32:00.074Z,5.60
2023-03-02T10:36:05.669Z,5.70
2023-03-02T10:40:30.921Z,5.77
2023-03-02T10:44:40.247Z,5.75
2023-03-02T10:48:51.931Z,5.93
2023-03-02T10:53:02.917Z,6.33
2023-03-02T10:57:29.918Z,6.03
2023-03-02T11:01:31.830Z,5.58
2023-03-02T11:05:36.782Z,5.62
2023-03-02T11:09:38.951Z,6.19
2023-03-02T11:13:40.655Z,6.52
2023-03-02T11:17:45.292Z,6.75
2023-03-02T11:21:53.998Z,6.75
2023-03-02T11:26:01.308Z,6.32
2023-03-02T11:30:11.669Z,6.53
2023-03-02T11:34:40.465Z,6.67
2023-03-02T11:38:48.719Z,6.46
2023-03-02T11:42:51.020Z,6.70
2023-03-02T11:46:59.300Z,6.60
2023-03-02T11:51:13.175Z,6.79
2023-03-02T11:55:17.802Z,6.85
2023-03-02T11:59:21.448Z,6.80
2023-03-02T12:03:44.884Z,7.27
2023-03-02T12:07:57.296Z,6.73
2023-03-02T12:12:32.845Z,6.42
2023-03-02T12:16:36.735Z,6.55
2023-03-02T12:20:41.388Z,6.50
2023-03-02T12:24:44.845Z,6.86
2023-03-02T12:29:07.426Z,7.05
2023-03-02T12:33:11.545Z,6.38
2023-03-02T12:37:21.988Z,6.35
2023-03-02T12:41:42.742Z,5.98
2023-03-02T12:46:30.439Z,5.71
2023-03-02T12:50:37.007Z,5.80
2023-03-02T12:54:38.489Z,6.16
2023-03-02T12:58:39.885Z,5.89
2023-03-02T13:02:47.065Z,5.87
2023-03-02T13:06:48.663Z,5.92
2023-03-02T13:10:53.122Z,6.16
2023-03-02T13:14:57.968Z,5.93
2023-03-02T13:19:03.053Z,6.52
2023-03-02T13:23:04.561Z,6.67
2023-03-02T13:27:18.056Z,6.77
2023-03-02T13:31:22.350Z,6.68
2023-03-02T13:35:26.790Z,6.70
2023-03-02T13:39:34.129Z,6.69
2023-03-02T13:43:38.418Z,7.10
2023-03-02T13:47:43.637Z,6.96
2023-03-02T13:51:48.433Z,6.88
2023-03-02T13:55:50.797Z,7.15
2023-03-02T13:59:52.328Z,6.81
2023-03-02T14:03:55.433Z,7.08
2023-03-02T14:07:59.767Z,6.95
2023-03-02T14:12:01.320Z,6.17
2023-03-02T14:16:03.134Z,6.48
2023-03-02T14:20:04.905Z,6.23
2023-03-02T14:24:06.894Z,6.38
2023-03-02T14:28:13.266Z,6.22
2023-03-02T14:32:15.328Z,6.48
2023-03-02T14:36:27.275Z,6.22
2023-03-02T14:40:28.807Z,6.73
2023-03-02T14:44:30.452Z,7.07
2023-03-02T14:48:51.850Z,6.45
2023-03-02T14:53:20.234Z,6.61
2023-03-02T14:57:41.671Z,6.90
2023-03-02T15:01:46.415Z,6.33
2023-03-02T15:06:00.330Z,6.82
2023-03-02T15:10:02.690Z,7.04
2023-03-02T15:14:04.273Z,6.50
2023-03-02T15:18:06.010Z,6.56
2023-03-02T15:22:07.440Z,6.59
2023-03-02T15:26:09.819Z,5.99
2023-03-02T15:30:12.320Z,5.91
2023-03-02T15:34:14.266Z,5.87
2023-03-02T15:38:15.694Z,5.57
2023-03-02T15:42:17.138Z,5.24
2023-03-02T15:46:19.824Z,5.25
2023-03-02T15:50:21.957Z,5.37
2023-03-02T15:54:28.043Z,5.06
2023-03-02T15:58:29.537Z,5.24
2023-03-02T16:02:52.121Z,5.10
2023-03-02T16:07:13.591Z,4.90
2023-03-02T16:11:18.646Z,4.81
2023-03-02T16:15:20.355Z,5.18
2023-03-02T16:19:21.817Z,4.91
2023-03-02T16:23:23.260Z,4.56
2023-03-02T16:27:25.046Z,4.81
2023-03-02T16:31:27.990Z,4.88
2023-03-02T16:35:32.753Z,4.57
2023-03-02T16:39:34.518Z,4.30
2023-03-02T16:43:35.942Z,4.45
2023-03-02T16:47:37.560Z,4.41
2023-03-02T16:51:39.566Z,4.95
2023-03-02T16:55:41.012Z,4.75
2023-03-02T16:59:42.434Z,4.73
2023-03-02T17:03:45.414Z,4.03
2023-03-02T17:07:47.602Z,4.29
2023-03-02T17:12:09.300Z,4.50
2023-03-02T17:16:30.665Z,4.51
2023-03-02T17:20:56.466Z,4.38
2023-03-02T17:25:19.700Z,4.48
2023-03-02T17:29:21.738Z,4.33
2023-03-02T17:33:23.276Z,4.21
2023-03-02T17:37:25.953Z,4.01
2023-03-02T17:41:27.562Z,4.14
2023-03-02T17:45:29.605Z,4.17
2023-03-02T17:49:31.199Z,4.42
2023-03-02T17:53:32.779Z,4.19
2023-03-02T17:57:34.246Z,4.33
2023-03-02T18:01:35.883Z,4.32
2023-03-02T18:05:37.381Z,3.71
2023-03-02T18:09:39.135Z,3.76
2023-03-02T18:13:40.570Z,3.82
2023-03-02T18:17:42.091Z,4.11
2023-03-02T18:21:43.781Z,3.66
2023-03-02T18:25:45.387Z,3.72
2023-03-02T18:30:07.716Z,4.01
2023-03-02T18:34:29.152Z,3.38
2023-03-02T18:38:48.453Z,3.82
2023-03-02T18:42:50.136Z,3.63
2023-03-02T18:46:51.674Z,3.74
2023-03-02T18:50:53.273Z,3.72
2023-03-02T18:54:57.741Z,4.15
2023-03-02T18:58:59.237Z,3.88
2023-03-02T19:03:00.805Z,4.15
2023-03-02T19:07:02.918Z,3.72
2023-03-02T19:11:05.138Z,3.44
2023-03-02T19:15:10.275Z,3.54
2023-03-02T19:19:11.799Z,3.88
2023-03-02T19:23:13.902Z,3.73
2023-03-02T19:27:15.528Z,3.89
2023-03-02T19:31:17.676Z,3.63
2023-03-02T19:35:24.060Z,3.95
2023-03-02T19:39:45.650Z,4.02
2023-03-02T19:44:10.358Z,4.55
2023-03-02T19:48:31.987Z,3.86
2023-03-02T19:52:33.593Z,3.67
2023-03-02T19:56:39.518Z,3.80
2023-03-02T20:00:40.960Z,3.63
2023-03-02T20:04:43.225Z,3.76
2023-03-02T20:08:44.785Z,3.93
2023-03-02T20:12:46.268Z,3.70
2023-03-02T20:16:47.707Z,3.49
2023-03-02T20:20:49.218Z,3.38
2023-03-02T20:24:50.796Z,3.48
2023-03-02T20:28:55.480Z,3.68
2023-03-02T20:32:58.571Z,4.14
2023-03-02T20:37:02.123Z,4.33
2023-03-02T20:41:06.443Z,4.11
2023-03-02T20:45:09.839Z,4.18
2023-03-02T20:49:15.253Z,4.38
2023-03-02T20:53:36.889Z,4.54
2023-03-02T20:57:38.653Z,4.41
2023-03-02T21:01:41.144Z,4.13
2023-03-02T21:05:43.044Z,4.03
2023-03-02T21:09:45.075Z,4.13
2023-03-02T21:13:48.241Z,4.19
2023-03-02T21:17:54.431Z,3.87
2023-03-02T21:21:57.374Z,4.11
2023-03-02T21:25:58.841Z,3.84
2023-03-02T21:30:03.134Z,4.23
2023-03-02T21:34:04.601Z,4.15
2023-03-02T21:38:06.873Z,4.28
2023-03-02T21:42:08.327Z,4.25
2023-03-02T21:46:13.579Z,4.32
2023-03-02T21:50:20.870Z,3.89
2023-03-02T21:54:22.375Z,3.94
2023-03-02T21:58:23.927Z,3.64
2023-03-02T22:02:25.351Z,4.01
2023-03-02T22:06:30.129Z,4.41
2023-03-02T22:10:38.525Z,3.75
2023-03-02T22:14:40.178Z,3.82
2023-03-02T22:18:43.589Z,3.71
2023-03-02T22:22:45.249Z,3.79
2023-03-02T22:26:52.932Z,3.89
2023-03-02T22:30:58.761Z,3.71
2023-03-02T22:35:08.387Z,3.73
2023-03-02T22:39:28.584Z,3.80
2023-03-02T22:43:31.241Z,3.60
2023-03-02T22:47:32.895Z,3.99
2023-03-02T22:51:34.354Z,3.98
2023-03-02T22:55:37.678Z,3.94
2023-03-02T22:59:39.155Z,3.97
2023-03-02T23:03:44.273Z,4.00
2023-03-02T23:07:45.720Z,4.12
2023-03-02T23:11:48.686Z,4.33
2023-03-02T23:15:51.781Z,3.98
2023-03-02T23:19:53.297Z,3.93
2023-03-02T23:23:54.765Z,3.98
2023-03-02T23:27:56.263Z,4.11
2023-03-02T23:31:58.259Z,4.21
2023-03-02T23:36:00.714Z,4.27
2023-03-02T23:40:02.177Z,4.06
2023-03-02T23:44:04.750Z,4.36
2023-03-02T23:48:06.687Z,4.45
2023-03-02T23:52:08.084Z,4.72
2023-03-02T23:56:09.569Z,4.58
